createdAt,value
2023-04-27T00:02:06.552Z,14.41
2023-04-27T00:04:59.955Z,14.46
2023-04-27T00:11:54.305Z,14.40
2023-04-27T00:14:39.190Z,14.32
2023-04-27T00:17:42.948Z,14.28
2023-04-27T00:20:44.266Z,14.28
2023-04-27T00:23:48.692Z,14.27
2023-04-27T00:26:29.472Z,14.23
2023-04-27T00:29:29.371Z,14.18
2023-04-27T00:32:02.554Z,14.16
2023-04-27T00:34:56.655Z,14.17
2023-04-27T00:38:25.695Z,14.17
2023-04-27T00:41:26.648Z,14.13
2023-04-27T00:44:10.373Z,14.08
2023-04-27T00:46:47.988Z,14.03
2023-04-27T00:49:50.392Z,14.00
2023-04-27T00:52:53.712Z,14.02
2023-04-27T00:55:46.673Z,14.05
2023-04-27T00:58:40.503Z,14.07
2023-04-27T01:01:41.379Z,14.08
2023-04-27T01:04:36.042Z,14.07
2023-04-27T01:07:31.017Z,14.07
2023-04-27T01:11:02.691Z,14.07
2023-04-27T01:13:58.953Z,13.99
2023-04-27T01:16:52.086Z,13.94
2023-04-27T01:19:36.848Z,13.85
2023-04-27T01:22:19.377Z,13.93
2023-04-27T01:25:19.980Z,13.96
2023-04-27T01:28:08.923Z,13.98
2023-04-27T01:31:39.862Z,13.94
2023-04-27T01:34:19.749Z,13.92
2023-04-27T01:37:10.686Z,13.90
2023-04-27T01:42:19.807Z,13.92
2023-04-27T01:45:02.130Z,13.97
2023-04-27T01:48:07.842Z,14.01
2023-04-27T01:50:48.555Z,14.04
2023-04-27T01:53:28.210Z,14.03
2023-04-27T02:02:42.270Z,14.07
2023-04-27T02:06:05.969Z,14.07
2023-04-27T02:08:45.753Z,13.98
2023-04-27T02:11:23.430Z,13.90
2023-04-27T02:13:58.171Z,13.87
2023-04-27T02:16:45.140Z,13.85
2023-04-27T02:19:28.050Z,13.82
2023-04-27T02:22:01.397Z,13.79
2023-04-27T02:24:50.474Z,13.72
2023-04-27T02:27:24.428Z,13.68
2023-04-27T02:30:04.882Z,13.67
2023-04-27T02:41:28.025Z,13.62
2023-04-27T02:44:14.392Z,13.66
2023-04-27T02:46:53.354Z,13.65
2023-04-27T02:50:16.487Z,13.64
2023-04-27T02:53:22.754Z,13.64
2023-04-27T02:57:03.939Z,13.63
2023-04-27T03:00:50.988Z,13.62
2023-04-27T03:03:55.665Z,13.59
2023-04-27T03:06:33.536Z,13.57
2023-04-27T03:09:12.742Z,13.58
2023-04-27T03:15:52.132Z,13.62
2023-04-27T03:19:48.246Z,13.57
2023-04-27T03:22:49.490Z,13.59
2023-04-27T03:26:16.593Z,13.63
2023-04-27T03:29:19.419Z,13.67
2023-04-27T03:32:12.681Z,13.70
2023-04-27T03:35:15.080Z,13.66
2023-04-27T03:38:37.838Z,13.62
2023-04-27T03:41:28.849Z,13.64
2023-04-27T03:44:19.747Z,13.66
2023-04-27T03:47:01.367Z,13.68
2023-04-27T03:50:47.157Z,13.67
2023-04-27T03:54:24.260Z,13.66
2023-04-27T03:57:16.520Z,13.71
2023-04-27T03:59:56.377Z,13.74
2023-04-27T04:02:40.129Z,13.80
2023-04-27T04:05:18.001Z,13.83
2023-04-27T04:07:52.881Z,13.84
2023-04-27T04:10:33.641Z,13.85
2023-04-27T04:13:12.316Z,13.88
2023-04-27T04:16:53.821Z,13.91
2023-04-27T04:19:46.916Z,13.85
2023-04-27T04:23:15.778Z,13.68
2023-04-27T04:26:18.044Z,13.46
2023-04-27T04:29:21.749Z,13.23
2023-04-27T04:36:41.451Z,12.85
2023-04-27T04:43:48.124Z,12.64
2023-04-27T04:47:32.749Z,12.60
2023-04-27T04:50:38.809Z,12.56
2023-04-27T04:53:55.900Z,12.50
2023-04-27T05:00:19.594Z,12.27
2023-04-27T05:20:19.213Z,11.59
2023-04-27T11:39:18.875Z,10.83
2023-04-27T12:15:13.980Z,10.60
2023-04-27T12:18:46.535Z,10.56
2023-04-27T12:43:07.253Z,11.56
2023-04-27T12:55:00.896Z,10.79
2023-04-27T13:26:41.422Z,9.86
2023-04-27T13:49:10.345Z,9.59
2023-04-27T14:01:31.902Z,9.59
2023-04-27T14:04:50.114Z,9.71
2023-04-27T14:07:53.155Z,9.71
2023-04-27T14:11:56.803Z,9.71
2023-04-27T14:15:12.179Z,9.67
2023-04-27T14:18:17.294Z,9.66
2023-04-27T14:22:10.809Z,9.67
2023-04-27T14:25:21.233Z,9.67
2023-04-27T14:28:30.077Z,9.67
2023-04-27T14:31:52.314Z,9.66
2023-04-27T14:38:59.493Z,9.60
2023-04-27T14:42:06.216Z,9.55
2023-04-27T14:50:28.814Z,9.50
2023-04-27T14:53:31.459Z,9.45
2023-04-27T14:57:22.423Z,9.45
2023-04-27T15:09:08.178Z,9.55
2023-04-27T15:11:59.153Z,9.57
2023-04-27T15:14:38.674Z,9.55
2023-04-27T15:18:38.980Z,9.54
2023-04-27T15:21:52.053Z,9.54
2023-04-27T15:30:35.456Z,9.54
2023-04-27T17:47:15.660Z,9.16
2023-04-27T17:54:32.657Z,9.07
2023-04-27T18:48:20.006Z,8.91
2023-04-27T18:51:31.914Z,8.90
2023-04-27T18:55:19.601Z,8.90
2023-04-27T18:58:23.265Z,8.87
2023-04-27T19:01:50.276Z,8.88
2023-04-27T19:18:10.585Z,8.87
2023-04-27T19:21:19.731Z,8.85
2023-04-27T19:24:49.880Z,8.84
2023-04-27T19:32:55.355Z,8.95
2023-04-27T19:35:41.032Z,8.95
2023-04-27T19:38:36.330Z,8.96
2023-04-27T19:46:22.896Z,8.95
2023-04-27T20:02:44.125Z,8.92
2023-04-27T20:20:01.189Z,8.89
2023-04-27T20:24:03.735Z,8.93
2023-04-27T20:27:22.418Z,8.95
2023-04-27T20:44:39.268Z,8.94
2023-04-27T20:47:59.367Z,8.92
2023-04-27T20:59:20.545Z,8.89
2023-04-27T21:07:02.923Z,8.93
2023-04-27T21:10:27.825Z,8.91
2023-04-27T21:14:55.734Z,8.95
2023-04-27T21:25:34.392Z,8.96
2023-04-27T21:30:43.352Z,9.01
2023-04-27T21:33:14.537Z,8.98
2023-04-27T21:35:50.855Z,8.98
2023-04-27T21:38:29.500Z,8.99
2023-04-27T21:41:03.593Z,9.02
2023-04-27T21:43:35.033Z,9.04
2023-04-27T21:46:18.828Z,9.05
2023-04-27T21:48:48.123Z,9.03
2023-04-27T21:51:16.891Z,9.07
2023-04-27T21:53:45.742Z,9.07
2023-04-27T21:56:14.980Z,9.04
2023-04-27T21:58:44.872Z,9.04
2023-04-27T22:01:15.072Z,8.99
2023-04-27T22:03:43.809Z,8.97
2023-04-27T22:06:14.969Z,9.01
2023-04-27T22:08:44.056Z,9.04
2023-04-27T22:11:15.092Z,9.04
2023-04-27T22:13:44.799Z,9.00
2023-04-27T22:16:14.914Z,9.02
2023-04-27T22:18:42.597Z,8.99
2023-04-27T22:21:10.597Z,8.97
2023-04-27T22:23:42.684Z,8.98
2023-04-27T22:26:11.929Z,9.00
2023-04-27T22:28:40.926Z,8.91
2023-04-27T22:31:09.318Z,8.96
2023-04-27T22:33:42.906Z,8.94
2023-04-27T22:36:17.364Z,8.97
2023-04-27T22:38:45.837Z,8.96
2023-04-27T22:41:14.896Z,8.92
2023-04-27T22:43:42.503Z,8.86
2023-04-27T22:46:13.592Z,8.89
2023-04-27T22:48:42.101Z,8.89
2023-04-27T22:51:10.547Z,8.89
2023-04-27T22:53:38.250Z,8.90
2023-04-27T22:56:07.451Z,8.92
2023-04-27T22:58:37.004Z,8.91
2023-04-27T23:01:06.432Z,8.90
2023-04-27T23:03:40.018Z,8.89
2023-04-27T23:06:14.423Z,8.87
2023-04-27T23:08:45.885Z,8.85
2023-04-27T23:11:13.982Z,8.86
2023-04-27T23:13:41.354Z,8.89
2023-04-27T23:16:10.519Z,8.89
2023-04-27T23:18:39.038Z,8.88
2023-04-27T23:21:08.159Z,8.86
2023-04-27T23:23:36.405Z,8.84
2023-04-27T23:26:04.025Z,8.82
2023-04-27T23:28:31.625Z,8.78
2023-04-27T23:30:59.016Z,8.76
2023-04-27T23:33:26.658Z,8.76
2023-04-27T23:35:56.076Z,8.77
2023-04-27T23:38:38.460Z,8.80
2023-04-27T23:41:05.749Z,8.80
2023-04-27T23:47:40.080Z,8.76
2023-04-27T23:50:25.472Z,8.93
2023-04-27T23:53:14.285Z,8.92
2023-04-27T23:59:21.168Z,8.89
